CNH1B UKLL-UKLL
Flight info
| Callsign | CNH1B |
|---|---|
| Flight time | 0h 30m |
| Altitude | 2500 |
| Route | DCT |
| Aircraft | AN2/M-SDFGRWY/S |
Departure
| Time | 2026-04-22 18:56 |
|---|---|
| Airport | Lviv International Airport (UKLL) |
Arrival
| Time | 2026-04-22 19:26 |
|---|---|
| Airport | Lviv International Airport (UKLL) |
| Time | Latitude | Longitude | Altitude | Speed | Heading |
|---|---|---|---|---|---|
| 2026-04-22 18:31 | 49.81826 | 23.95286 | 1056 ft | 0 kts | 158° |
| 2026-04-22 18:44 | 49.81818 | 23.95291 | 1056 ft | 3 kts | 159° |
| 2026-04-22 18:44 | 49.81788 | 23.95296 | 1056 ft | 1 kts | 222° |
| 2026-04-22 18:44 | 49.81770 | 23.95224 | 1056 ft | 16 kts | 249° |
| 2026-04-22 18:45 | 49.81741 | 23.95114 | 1056 ft | 10 kts | 246° |
| 2026-04-22 18:45 | 49.81687 | 23.95104 | 1056 ft | 13 kts | 128° |
| 2026-04-22 18:45 | 49.81597 | 23.95238 | 1056 ft | 14 kts | 133° |
| 2026-04-22 18:45 | 49.81519 | 23.95355 | 1056 ft | 7 kts | 136° |
| 2026-04-22 18:46 | 49.81461 | 23.95437 | 1057 ft | 14 kts | 144° |
| 2026-04-22 18:46 | 49.81417 | 23.95475 | 1057 ft | 5 kts | 156° |
| 2026-04-22 18:46 | 49.81336 | 23.95555 | 1057 ft | 15 kts | 136° |
| 2026-04-22 18:46 | 49.81326 | 23.95570 | 1057 ft | 0 kts | 136° |
| 2026-04-22 18:47 | 49.81304 | 23.95601 | 1057 ft | 6 kts | 147° |
| 2026-04-22 18:47 | 49.81295 | 23.95608 | 1057 ft | 0 kts | 162° |
| 2026-04-22 18:47 | 49.81285 | 23.95613 | 1057 ft | 7 kts | 162° |
| 2026-04-22 18:47 | 49.81277 | 23.95616 | 1057 ft | 0 kts | 183° |
| 2026-04-22 18:48 | 49.81265 | 23.95611 | 1057 ft | 0 kts | 210° |
| 2026-04-22 18:52 | 49.81255 | 23.95602 | 1056 ft | 4 kts | 220° |
| 2026-04-22 18:52 | 49.81207 | 23.95524 | 1057 ft | 7 kts | 234° |
| 2026-04-22 18:52 | 49.81199 | 23.95496 | 1057 ft | 0 kts | 304° |
| 2026-04-22 18:53 | 49.81200 | 23.95492 | 1057 ft | 0 kts | 315° |
| 2026-04-22 18:53 | 49.81284 | 23.95351 | 1057 ft | 40 kts | 324° |
| 2026-04-22 18:54 | 49.81544 | 23.94969 | 1055 ft | 61 kts | 317° |
| 2026-04-22 18:54 | 49.81837 | 23.94556 | 1111 ft | 51 kts | 315° |
| 2026-04-22 18:54 | 49.82120 | 23.94164 | 1072 ft | 57 kts | 308° |
| 2026-04-22 18:54 | 49.82343 | 23.93679 | 1116 ft | 54 kts | 298° |
| 2026-04-22 18:55 | 49.82405 | 23.93170 | 1248 ft | 54 kts | 262° |
| 2026-04-22 18:55 | 49.82297 | 23.92661 | 1421 ft | 49 kts | 248° |
| 2026-04-22 18:55 | 49.82090 | 23.92180 | 1548 ft | 56 kts | 243° |
| 2026-04-22 18:55 | 49.81757 | 23.91784 | 1639 ft | 70 kts | 208° |
| 2026-04-22 18:56 | 49.81238 | 23.91799 | 1741 ft | 78 kts | 177° |
| 2026-04-22 18:56 | 49.80707 | 23.91988 | 1862 ft | 81 kts | 168° |
| 2026-04-22 18:56 | 49.80189 | 23.92445 | 1931 ft | 90 kts | 143° |
| 2026-04-22 18:56 | 49.79708 | 23.93118 | 1991 ft | 95 kts | 134° |
| 2026-04-22 18:57 | 49.79244 | 23.93854 | 2066 ft | 96 kts | 129° |
| 2026-04-22 18:57 | 49.78771 | 23.94562 | 2156 ft | 94 kts | 130° |
| 2026-04-22 18:57 | 49.78298 | 23.95273 | 2221 ft | 95 kts | 138° |
| 2026-04-22 18:57 | 49.77764 | 23.95921 | 2273 ft | 100 kts | 141° |
| 2026-04-22 18:58 | 49.77215 | 23.96541 | 2339 ft | 99 kts | 142° |
| 2026-04-22 18:58 | 49.76658 | 23.97194 | 2371 ft | 101 kts | 141° |
| 2026-04-22 18:58 | 49.76100 | 23.97882 | 2434 ft | 102 kts | 136° |
| 2026-04-22 18:58 | 49.75546 | 23.98665 | 2410 ft | 109 kts | 133° |
| 2026-04-22 18:59 | 49.75007 | 23.99519 | 2428 ft | 114 kts | 130° |
| 2026-04-22 18:59 | 49.74481 | 24.00396 | 2520 ft | 109 kts | 129° |
| 2026-04-22 18:59 | 49.73992 | 24.01266 | 2627 ft | 104 kts | 124° |
| 2026-04-22 18:59 | 49.73553 | 24.02138 | 2706 ft | 102 kts | 119° |
| 2026-04-22 19:00 | 49.73118 | 24.03023 | 2740 ft | 106 kts | 126° |
| 2026-04-22 19:00 | 49.72613 | 24.03935 | 2710 ft | 115 kts | 128° |
| 2026-04-22 19:00 | 49.72087 | 24.04827 | 2739 ft | 116 kts | 130° |
| 2026-04-22 19:00 | 49.71477 | 24.05722 | 2658 ft | 122 kts | 137° |
| 2026-04-22 19:01 | 49.70853 | 24.06596 | 2670 ft | 121 kts | 136° |
| 2026-04-22 19:01 | 49.70235 | 24.07448 | 2664 ft | 122 kts | 130° |
| 2026-04-22 19:01 | 49.69609 | 24.08433 | 2510 ft | 130 kts | 134° |
| 2026-04-22 19:01 | 49.68987 | 24.09399 | 2465 ft | 126 kts | 131° |
| 2026-04-22 19:02 | 49.68378 | 24.10355 | 2428 ft | 126 kts | 133° |
| 2026-04-22 19:02 | 49.67727 | 24.11300 | 2333 ft | 126 kts | 136° |
| 2026-04-22 19:02 | 49.67084 | 24.12085 | 2303 ft | 114 kts | 158° |
| 2026-04-22 19:02 | 49.66340 | 24.12297 | 2303 ft | 103 kts | 187° |
| 2026-04-22 19:03 | 49.65654 | 24.12097 | 2244 ft | 99 kts | 214° |
| 2026-04-22 19:03 | 49.65154 | 24.11471 | 2209 ft | 87 kts | 249° |
| 2026-04-22 19:03 | 49.65053 | 24.10621 | 2118 ft | 79 kts | 289° |
| 2026-04-22 19:03 | 49.65397 | 24.10038 | 2099 ft | 76 kts | 330° |
| 2026-04-22 19:04 | 49.65929 | 24.09974 | 2073 ft | 83 kts | 2° |
| 2026-04-22 19:04 | 49.66456 | 24.10428 | 2085 ft | 90 kts | 31° |
| 2026-04-22 19:04 | 49.66766 | 24.11295 | 2125 ft | 97 kts | 66° |
| 2026-04-22 19:04 | 49.66853 | 24.12296 | 2202 ft | 93 kts | 72° |
| 2026-04-22 19:05 | 49.66934 | 24.13447 | 1905 ft | 119 kts | 77° |
| 2026-04-22 19:05 | 49.66885 | 24.14684 | 1811 ft | 115 kts | 97° |
| 2026-04-22 19:05 | 49.66578 | 24.15785 | 1709 ft | 111 kts | 124° |
| 2026-04-22 19:05 | 49.66131 | 24.16745 | 1683 ft | 108 kts | 123° |
| 2026-04-22 19:06 | 49.65718 | 24.17660 | 1725 ft | 99 kts | 125° |
| 2026-04-22 19:06 | 49.65373 | 24.18531 | 1750 ft | 93 kts | 92° |
| 2026-04-22 19:06 | 49.65521 | 24.19438 | 1756 ft | 86 kts | 49° |
| 2026-04-22 19:07 | 49.66481 | 24.20137 | 1774 ft | 80 kts | 359° |
| 2026-04-22 19:07 | 49.67037 | 24.20313 | 1799 ft | 84 kts | 8° |
| 2026-04-22 19:07 | 49.67574 | 24.20594 | 1864 ft | 80 kts | 5° |
| 2026-04-22 19:07 | 49.68124 | 24.20812 | 1788 ft | 84 kts | 1° |
| 2026-04-22 19:08 | 49.68692 | 24.20965 | 1779 ft | 80 kts | 0° |
| 2026-04-22 19:08 | 49.69230 | 24.21056 | 1751 ft | 81 kts | 5° |
| 2026-04-22 19:08 | 49.69788 | 24.21245 | 1744 ft | 82 kts | 0° |
| 2026-04-22 19:08 | 49.70343 | 24.21416 | 1763 ft | 82 kts | 6° |
| 2026-04-22 19:09 | 49.70872 | 24.21732 | 1835 ft | 78 kts | 9° |
| 2026-04-22 19:09 | 49.71342 | 24.22112 | 1860 ft | 74 kts | 12° |
| 2026-04-22 19:09 | 49.71798 | 24.22365 | 1936 ft | 65 kts | 359° |
| 2026-04-22 19:09 | 49.72257 | 24.22524 | 1941 ft | 70 kts | 0° |
| 2026-04-22 19:10 | 49.72706 | 24.22642 | 2001 ft | 65 kts | 354° |
| 2026-04-22 19:10 | 49.73160 | 24.22804 | 2017 ft | 68 kts | 4° |
| 2026-04-22 19:10 | 49.73599 | 24.23200 | 1993 ft | 80 kts | 28° |
| 2026-04-22 19:10 | 49.73914 | 24.23969 | 1999 ft | 90 kts | 55° |
| 2026-04-22 19:11 | 49.73897 | 24.25023 | 1909 ft | 110 kts | 100° |
| 2026-04-22 19:11 | 49.73406 | 24.25907 | 1875 ft | 113 kts | 153° |
| 2026-04-22 19:11 | 49.72681 | 24.26124 | 1867 ft | 102 kts | 196° |
| 2026-04-22 19:11 | 49.72029 | 24.25832 | 1906 ft | 96 kts | 212° |
| 2026-04-22 19:12 | 49.71373 | 24.25550 | 1926 ft | 98 kts | 203° |
| 2026-04-22 19:12 | 49.70757 | 24.25261 | 1972 ft | 91 kts | 213° |
| 2026-04-22 19:12 | 49.70191 | 24.24830 | 1985 ft | 91 kts | 221° |
| 2026-04-22 19:12 | 49.69644 | 24.24363 | 2019 ft | 91 kts | 221° |
| 2026-04-22 19:13 | 49.69098 | 24.23886 | 2055 ft | 87 kts | 224° |
| 2026-04-22 19:13 | 49.68670 | 24.23339 | 2134 ft | 75 kts | 244° |
| 2026-04-22 19:13 | 49.68554 | 24.22676 | 2158 ft | 63 kts | 286° |
| 2026-04-22 19:13 | 49.68586 | 24.21981 | 2149 ft | 64 kts | 283° |
| 2026-04-22 19:14 | 49.68689 | 24.21299 | 2161 ft | 66 kts | 292° |
| 2026-04-22 19:14 | 49.68786 | 24.20590 | 2182 ft | 69 kts | 283° |
| 2026-04-22 19:14 | 49.68845 | 24.19860 | 2179 ft | 70 kts | 283° |
| 2026-04-22 19:14 | 49.68915 | 24.19124 | 2232 ft | 68 kts | 283° |
| 2026-04-22 19:15 | 49.68944 | 24.18427 | 2301 ft | 63 kts | 282° |
| 2026-04-22 19:15 | 49.69015 | 24.17781 | 2339 ft | 58 kts | 292° |
| 2026-04-22 19:15 | 49.69183 | 24.17201 | 2335 ft | 61 kts | 299° |
| 2026-04-22 19:15 | 49.69362 | 24.16610 | 2455 ft | 58 kts | 303° |
| 2026-04-22 19:16 | 49.69574 | 24.16073 | 2489 ft | 60 kts | 306° |
| 2026-04-22 19:16 | 49.69790 | 24.15503 | 2488 ft | 63 kts | 303° |
| 2026-04-22 19:16 | 49.69964 | 24.14915 | 2532 ft | 60 kts | 298° |
| 2026-04-22 19:16 | 49.70124 | 24.14348 | 2579 ft | 57 kts | 301° |
| 2026-04-22 19:17 | 49.70291 | 24.13795 | 2656 ft | 57 kts | 299° |
| 2026-04-22 19:17 | 49.70465 | 24.13241 | 2710 ft | 60 kts | 304° |
| 2026-04-22 19:17 | 49.70659 | 24.12668 | 2746 ft | 59 kts | 303° |
| 2026-04-22 19:17 | 49.70848 | 24.12133 | 2805 ft | 56 kts | 309° |
| 2026-04-22 19:18 | 49.71051 | 24.11609 | 2847 ft | 55 kts | 304° |
| 2026-04-22 19:18 | 49.71232 | 24.11120 | 2930 ft | 54 kts | 308° |
| 2026-04-22 19:18 | 49.71437 | 24.10613 | 2983 ft | 57 kts | 306° |
| 2026-04-22 19:18 | 49.71632 | 24.10077 | 3028 ft | 58 kts | 305° |
| 2026-04-22 19:19 | 49.71863 | 24.09573 | 3095 ft | 57 kts | 310° |
| 2026-04-22 19:19 | 49.72107 | 24.09096 | 3166 ft | 56 kts | 311° |
| 2026-04-22 19:19 | 49.72365 | 24.08632 | 3186 ft | 61 kts | 311° |
| 2026-04-22 19:19 | 49.72671 | 24.08107 | 3133 ft | 68 kts | 317° |
| 2026-04-22 19:20 | 49.73005 | 24.07630 | 3129 ft | 61 kts | 320° |
| 2026-04-22 19:20 | 49.73310 | 24.07196 | 3019 ft | 61 kts | 317° |
| 2026-04-22 19:20 | 49.73615 | 24.06731 | 2880 ft | 60 kts | 318° |
| 2026-04-22 19:20 | 49.73923 | 24.06298 | 2741 ft | 62 kts | 317° |
| 2026-04-22 19:21 | 49.74217 | 24.05879 | 2643 ft | 53 kts | 317° |
| 2026-04-22 19:21 | 49.74501 | 24.05462 | 2596 ft | 58 kts | 317° |
| 2026-04-22 19:21 | 49.74795 | 24.05032 | 2533 ft | 56 kts | 317° |
| 2026-04-22 19:21 | 49.75059 | 24.04654 | 2456 ft | 53 kts | 317° |
| 2026-04-22 19:22 | 49.75343 | 24.04275 | 2432 ft | 54 kts | 315° |
| 2026-04-22 19:22 | 49.75604 | 24.03832 | 2394 ft | 57 kts | 315° |
| 2026-04-22 19:22 | 49.75875 | 24.03412 | 2320 ft | 56 kts | 315° |
| 2026-04-22 19:22 | 49.76153 | 24.02997 | 2228 ft | 56 kts | 315° |
| 2026-04-22 19:23 | 49.76434 | 24.02586 | 2142 ft | 56 kts | 316° |
| 2026-04-22 19:23 | 49.76716 | 24.02182 | 2069 ft | 54 kts | 315° |
| 2026-04-22 19:23 | 49.76992 | 24.01795 | 1959 ft | 54 kts | 313° |
| 2026-04-22 19:23 | 49.77265 | 24.01373 | 1843 ft | 56 kts | 314° |
| 2026-04-22 19:24 | 49.77532 | 24.00972 | 1835 ft | 53 kts | 315° |
| 2026-04-22 19:24 | 49.77807 | 24.00573 | 1781 ft | 55 kts | 314° |
| 2026-04-22 19:24 | 49.78088 | 24.00155 | 1674 ft | 56 kts | 314° |
| 2026-04-22 19:24 | 49.78361 | 23.99748 | 1584 ft | 53 kts | 314° |
| 2026-04-22 19:25 | 49.78621 | 23.99353 | 1495 ft | 52 kts | 314° |
| 2026-04-22 19:25 | 49.78881 | 23.98962 | 1427 ft | 54 kts | 310° |
| 2026-04-22 19:25 | 49.79168 | 23.98543 | 1342 ft | 59 kts | 313° |
| 2026-04-22 19:25 | 49.79467 | 23.98095 | 1252 ft | 60 kts | 313° |
| 2026-04-22 19:26 | 49.79771 | 23.97630 | 1154 ft | 63 kts | 313° |
| 2026-04-22 19:26 | 49.80090 | 23.97155 | 1066 ft | 63 kts | 314° |
| 2026-04-22 19:26 | 49.80378 | 23.96720 | 1055 ft | 46 kts | 313° |
| 2026-04-22 19:26 | 49.80516 | 23.96482 | 1056 ft | 16 kts | 321° |
| 2026-04-22 19:27 | 49.80627 | 23.96342 | 1057 ft | 27 kts | 316° |
| 2026-04-22 19:27 | 49.80764 | 23.96127 | 1056 ft | 26 kts | 307° |
| 2026-04-22 19:27 | 49.80920 | 23.96016 | 1056 ft | 22 kts | 357° |
| 2026-04-22 19:27 | 49.81073 | 23.96013 | 1057 ft | 24 kts | 331° |
| 2026-04-22 19:28 | 49.81201 | 23.95824 | 1057 ft | 26 kts | 317° |
| 2026-04-22 19:28 | 49.81251 | 23.95750 | 1057 ft | 0 kts | 315° |
| 2026-04-22 19:28 | 49.81251 | 23.95749 | 1057 ft | 3 kts | 315° |
| 2026-04-22 19:28 | 49.81315 | 23.95585 | 1057 ft | 27 kts | 322° |
| 2026-04-22 19:29 | 49.81476 | 23.95408 | 1057 ft | 26 kts | 326° |
| 2026-04-22 19:29 | 49.81600 | 23.95227 | 1056 ft | 23 kts | 316° |
| 2026-04-22 19:29 | 49.81706 | 23.95079 | 1056 ft | 10 kts | 319° |
| 2026-04-22 19:29 | 49.81782 | 23.95153 | 1056 ft | 25 kts | 72° |
| 2026-04-22 19:30 | 49.81802 | 23.95249 | 1054 ft | 11 kts | 58° |
| 2026-04-22 19:30 | 49.81846 | 23.95311 | 1056 ft | 4 kts | 154° |
| 2026-04-22 19:30 | 49.81845 | 23.95312 | 1056 ft | 0 kts | 162° |